sensor_id;sensor_type;location;lat;lon;timestamp;pressure;altitude;pressure_sealevel;temperature;humidity
54882;BME280;40775;51.448;4.742;2023-07-30T00:00:03;100850.78;;;17.32;100.00
54882;BME280;40775;51.448;4.742;2023-07-30T00:02:30;100854.34;;;17.28;100.00
54882;BME280;40775;51.448;4.742;2023-07-30T00:04:57;100846.41;;;17.20;100.00
54882;BME280;40775;51.448;4.742;2023-07-30T00:07:24;100859.66;;;17.22;100.00
54882;BME280;40775;51.448;4.742;2023-07-30T00:09:51;100864.13;;;17.17;100.00
54882;BME280;40775;51.448;4.742;2023-07-30T00:12:18;100865.00;;;17.17;100.00
54882;BME280;40775;51.448;4.742;2023-07-30T00:14:45;100861.50;;;17.14;100.00
54882;BME280;40775;51.448;4.742;2023-07-30T00:17:12;100866.75;;;17.21;100.00
54882;BME280;40775;51.448;4.742;2023-07-30T00:19:39;100865.06;;;17.11;100.00
54882;BME280;40775;51.448;4.742;2023-07-30T00:22:06;100867.66;;;17.16;100.00
54882;BME280;40775;51.448;4.742;2023-07-30T00:24:33;100867.72;;;17.10;100.00
54882;BME280;40775;51.448;4.742;2023-07-30T00:27:00;100877.44;;;17.11;100.00
54882;BME280;40775;51.448;4.742;2023-07-30T00:29:27;100870.38;;;17.10;100.00
54882;BME280;40775;51.448;4.742;2023-07-30T00:31:54;100875.69;;;17.07;100.00
54882;BME280;40775;51.448;4.742;2023-07-30T00:34:21;100870.44;;;17.01;100.00
54882;BME280;40775;51.448;4.742;2023-07-30T00:36:48;100880.16;;;17.02;100.00
54882;BME280;40775;51.448;4.742;2023-07-30T00:39:15;100881.91;;;16.96;100.00
54882;BME280;40775;51.448;4.742;2023-07-30T00:41:42;100880.16;;;17.00;100.00
54882;BME280;40775;51.448;4.742;2023-07-30T00:44:09;100884.56;;;16.95;100.00
54882;BME280;40775;51.448;4.742;2023-07-30T00:46:35;100889.03;;;16.88;100.00
54882;BME280;40775;51.448;4.742;2023-07-30T00:49:03;100890.81;;;16.88;100.00
54882;BME280;40775;51.448;4.742;2023-07-30T00:51:31;100892.59;;;16.84;100.00
54882;BME280;40775;51.448;4.742;2023-07-30T00:54:07;100897.91;;;16.81;100.00
54882;BME280;40775;51.448;4.742;2023-07-30T00:56:34;100892.59;;;16.83;100.00
54882;BME280;40775;51.448;4.742;2023-07-30T00:59:02;100888.22;;;16.77;100.00
54882;BME280;40775;51.448;4.742;2023-07-30T01:01:33;100890.88;;;16.74;100.00
54882;BME280;40775;51.448;4.742;2023-07-30T01:04:04;100893.53;;;16.77;100.00
54882;BME280;40775;51.448;4.742;2023-07-30T01:06:31;100891.75;;;16.78;100.00
54882;BME280;40775;51.448;4.742;2023-07-30T01:08:58;100891.78;;;16.75;100.00
54882;BME280;40775;51.448;4.742;2023-07-30T01:11:26;100905.91;;;16.74;100.00
54882;BME280;40775;51.448;4.742;2023-07-30T01:13:54;100901.50;;;16.76;100.00
54882;BME280;40775;51.448;4.742;2023-07-30T01:16:22;100901.47;;;16.69;100.00
54882;BME280;40775;51.448;4.742;2023-07-30T01:18:49;100907.66;;;16.70;100.00
54882;BME280;40775;51.448;4.742;2023-07-30T01:21:16;100914.75;;;16.68;100.00
54882;BME280;40775;51.448;4.742;2023-07-30T01:23:43;100917.38;;;16.65;100.00
54882;BME280;40775;51.448;4.742;2023-07-30T01:26:22;100919.16;;;16.67;100.00
54882;BME280;40775;51.448;4.742;2023-07-30T01:28:55;100921.78;;;16.64;100.00
54882;BME280;40775;51.448;4.742;2023-07-30T01:31:26;100920.06;;;16.66;100.00
54882;BME280;40775;51.448;4.742;2023-07-30T01:33:55;100926.22;;;16.70;100.00
54882;BME280;40775;51.448;4.742;2023-07-30T01:36:22;100927.13;;;16.66;100.00
54882;BME280;40775;51.448;4.742;2023-07-30T01:38:51;100930.66;;;16.69;100.00
54882;BME280;40775;51.448;4.742;2023-07-30T01:41:19;100934.19;;;16.73;100.00
54882;BME280;40775;51.448;4.742;2023-07-30T01:43:46;100935.06;;;16.77;100.00
54882;BME280;40775;51.448;4.742;2023-07-30T01:46:13;100935.94;;;16.77;100.00
54882;BME280;40775;51.448;4.742;2023-07-30T01:48:40;100945.66;;;16.77;100.00
54882;BME280;40775;51.448;4.742;2023-07-30T01:51:07;100938.59;;;16.79;100.00
54882;BME280;40775;51.448;4.742;2023-07-30T01:53:34;100935.03;;;16.80;100.00
54882;BME280;40775;51.448;4.742;2023-07-30T01:56:01;100941.22;;;16.83;100.00
54882;BME280;40775;51.448;4.742;2023-07-30T01:58:28;100939.44;;;16.87;100.00
54882;BME280;40775;51.448;4.742;2023-07-30T02:00:55;100937.69;;;16.84;100.00
54882;BME280;40775;51.448;4.742;2023-07-30T02:03:22;100934.16;;;16.82;100.00
54882;BME280;40775;51.448;4.742;2023-07-30T02:05:49;100927.94;;;16.88;100.00
54882;BME280;40775;51.448;4.742;2023-07-30T02:08:16;100934.13;;;16.88;100.00
54882;BME280;40775;51.448;4.742;2023-07-30T02:10:43;100938.53;;;16.91;100.00
54882;BME280;40775;51.448;4.742;2023-07-30T02:13:10;100935.00;;;16.89;100.00
54882;BME280;40775;51.448;4.742;2023-07-30T02:15:40;100937.63;;;16.95;100.00
54882;BME280;40775;51.448;4.742;2023-07-30T02:18:09;100935.84;;;16.95;100.00
54882;BME280;40775;51.448;4.742;2023-07-30T02:20:37;100934.09;;;16.93;100.00
54882;BME280;40775;51.448;4.742;2023-07-30T02:23:04;100938.53;;;16.98;100.00
54882;BME280;40775;51.448;4.742;2023-07-30T02:25:31;100934.09;;;17.01;100.00
54882;BME280;40775;51.448;4.742;2023-07-30T02:28:00;100932.31;;;17.03;100.00
54882;BME280;40775;51.448;4.742;2023-07-30T02:30:28;100934.06;;;17.05;100.00
54882;BME280;40775;51.448;4.742;2023-07-30T02:32:55;100946.47;;;17.02;100.00
54882;BME280;40775;51.448;4.742;2023-07-30T02:35:22;100934.06;;;17.05;100.00
54882;BME280;40775;51.448;4.742;2023-07-30T02:37:49;100941.13;;;17.05;100.00
54882;BME280;40775;51.448;4.742;2023-07-30T02:40:16;100946.44;;;17.06;100.00
54882;BME280;40775;51.448;4.742;2023-07-30T02:42:44;100939.34;;;17.10;100.00
54882;BME280;40775;51.448;4.742;2023-07-30T02:45:10;100930.53;;;17.05;100.00
54882;BME280;40775;51.448;4.742;2023-07-30T02:47:38;100933.16;;;17.08;100.00
54882;BME280;40775;51.448;4.742;2023-07-30T02:50:05;100931.38;;;17.10;100.00
54882;BME280;40775;51.448;4.742;2023-07-30T02:52:33;100936.66;;;17.13;100.00
54882;BME280;40775;51.448;4.742;2023-07-30T02:55:00;100935.75;;;17.17;100.00
54882;BME280;40775;51.448;4.742;2023-07-30T02:57:26;100934.88;;;17.18;100.00
54882;BME280;40775;51.448;4.742;2023-07-30T02:59:53;100933.09;;;17.17;100.00
54882;BME280;40775;51.448;4.742;2023-07-30T03:02:20;100934.88;;;17.18;100.00
54882;BME280;40775;51.448;4.742;2023-07-30T03:04:48;100933.09;;;17.20;100.00
54882;BME280;40775;51.448;4.742;2023-07-30T03:07:15;100939.28;;;17.20;100.00
54882;BME280;40775;51.448;4.742;2023-07-30T03:09:42;100938.38;;;17.21;100.00
54882;BME280;40775;51.448;4.742;2023-07-30T03:12:09;100933.97;;;17.20;100.00
54882;BME280;40775;51.448;4.742;2023-07-30T03:14:36;100935.72;;;17.21;100.00
54882;BME280;40775;51.448;4.742;2023-07-30T03:17:03;100941.03;;;17.23;100.00
54882;BME280;40775;51.448;4.742;2023-07-30T03:19:32;100931.28;;;17.25;100.00
54882;BME280;40775;51.448;4.742;2023-07-30T03:21:59;100932.19;;;17.27;100.00
54882;BME280;40775;51.448;4.742;2023-07-30T03:24:25;100939.25;;;17.28;100.00
54882;BME280;40775;51.448;4.742;2023-07-30T03:26:52;100941.00;;;17.32;100.00
54882;BME280;40775;51.448;4.742;2023-07-30T03:29:21;100936.59;;;17.29;100.00
54882;BME280;40775;51.448;4.742;2023-07-30T03:31:48;100938.34;;;17.32;100.00
54882;BME280;40775;51.448;4.742;2023-07-30T03:34:15;100947.19;;;17.33;100.00
54882;BME280;40775;51.448;4.742;2023-07-30T03:36:42;100951.63;;;17.30;100.00
54882;BME280;40775;51.448;4.742;2023-07-30T03:39:09;100941.84;;;17.36;100.00
54882;BME280;40775;51.448;4.742;2023-07-30T03:41:36;100950.72;;;17.33;100.00
54882;BME280;40775;51.448;4.742;2023-07-30T03:44:03;100953.38;;;17.32;100.00
54882;BME280;40775;51.448;4.742;2023-07-30T03:46:30;100947.19;;;17.29;100.00
54882;BME280;40775;51.448;4.742;2023-07-30T03:48:57;100942.75;;;17.32;100.00
54882;BME280;40775;51.448;4.742;2023-07-30T03:51:24;100936.56;;;17.33;100.00
54882;BME280;40775;51.448;4.742;2023-07-30T03:53:51;100943.66;;;17.30;100.00
54882;BME280;40775;51.448;4.742;2023-07-30T03:56:18;100946.28;;;17.34;100.00
54882;BME280;40775;51.448;4.742;2023-07-30T03:58:45;100948.94;;;17.32;100.00
54882;BME280;40775;51.448;4.742;2023-07-30T04:01:12;100951.56;;;17.37;100.00
54882;BME280;40775;51.448;4.742;2023-07-30T04:03:39;100953.34;;;17.36;100.00
54882;BME280;40775;51.448;4.742;2023-07-30T04:06:06;100963.09;;;17.34;100.00
54882;BME280;40775;51.448;4.742;2023-07-30T04:08:33;100965.75;;;17.34;100.00
54882;BME280;40775;51.448;4.742;2023-07-30T04:11:00;100971.94;;;17.33;100.00
54882;BME280;40775;51.448;4.742;2023-07-30T04:13:28;100956.00;;;17.38;100.00
54882;BME280;40775;51.448;4.742;2023-07-30T04:15:55;100963.09;;;17.36;100.00
54882;BME280;40775;51.448;4.742;2023-07-30T04:18:22;100954.25;;;17.34;100.00
54882;BME280;40775;51.448;4.742;2023-07-30T04:20:50;100957.81;;;17.31;100.00
54882;BME280;40775;51.448;4.742;2023-07-30T04:23:17;100969.28;;;17.36;100.00
54882;BME280;40775;51.448;4.742;2023-07-30T04:25:43;100963.97;;;17.36;100.00
54882;BME280;40775;51.448;4.742;2023-07-30T04:28:10;100962.22;;;17.32;100.00
54882;BME280;40775;51.448;4.742;2023-07-30T04:30:37;100961.28;;;17.38;100.00
54882;BME280;40775;51.448;4.742;2023-07-30T04:33:04;100966.59;;;17.41;100.00
54882;BME280;40775;51.448;4.742;2023-07-30T04:35:31;100971.00;;;17.40;100.00
54882;BME280;40775;51.448;4.742;2023-07-30T04:37:58;100978.09;;;17.38;100.00
54882;BME280;40775;51.448;4.742;2023-07-30T04:40:25;100969.28;;;17.36;100.00
54882;BME280;40775;51.448;4.742;2023-07-30T04:42:52;100978.94;;;17.43;100.00
54882;BME280;40775;51.448;4.742;2023-07-30T04:45:19;100975.44;;;17.38;100.00
54882;BME280;40775;51.448;4.742;2023-07-30T04:47:46;100982.50;;;17.41;100.00
54882;BME280;40775;51.448;4.742;2023-07-30T04:50:13;100986.91;;;17.43;100.00
54882;BME280;40775;51.448;4.742;2023-07-30T04:52:40;100989.59;;;17.40;100.00
54882;BME280;40775;51.448;4.742;2023-07-30T04:55:07;100993.13;;;17.42;100.00
54882;BME280;40775;51.448;4.742;2023-07-30T04:57:35;100995.75;;;17.44;100.00
54882;BME280;40775;51.448;4.742;2023-07-30T05:00:02;100994.00;;;17.44;100.00
54882;BME280;40775;51.448;4.742;2023-07-30T05:02:30;100991.34;;;17.44;100.00
54882;BME280;40775;51.448;4.742;2023-07-30T05:04:57;100991.31;;;17.46;100.00
54882;BME280;40775;51.448;4.742;2023-07-30T05:07:24;100999.28;;;17.47;100.00
54882;BME280;40775;51.448;4.742;2023-07-30T05:09:51;100992.16;;;17.52;100.00
54882;BME280;40775;51.448;4.742;2023-07-30T05:12:18;100993.94;;;17.50;100.00
54882;BME280;40775;51.448;4.742;2023-07-30T05:14:45;100996.59;;;17.50;100.00
54882;BME280;40775;51.448;4.742;2023-07-30T05:17:12;100997.47;;;17.52;100.00
54882;BME280;40775;51.448;4.742;2023-07-30T05:19:39;100993.06;;;17.48;100.00
54882;BME280;40775;51.448;4.742;2023-07-30T05:22:06;100994.81;;;17.52;100.00
54882;BME280;40775;51.448;4.742;2023-07-30T05:24:34;100995.72;;;17.51;100.00
54882;BME280;40775;51.448;4.742;2023-07-30T05:27:04;100999.25;;;17.53;100.00
54882;BME280;40775;51.448;4.742;2023-07-30T05:29:31;101003.69;;;17.54;100.00
54882;BME280;40775;51.448;4.742;2023-07-30T05:31:58;101003.69;;;17.54;100.00
54882;BME280;40775;51.448;4.742;2023-07-30T05:34:25;100995.69;;;17.59;100.00
54882;BME280;40775;51.448;4.742;2023-07-30T05:36:52;101002.72;;;17.65;100.00
54882;BME280;40775;51.448;4.742;2023-07-30T05:39:19;100993.91;;;17.59;100.00
54882;BME280;40775;51.448;4.742;2023-07-30T05:41:46;100991.28;;;17.58;100.00
54882;BME280;40775;51.448;4.742;2023-07-30T05:44:13;100993.88;;;17.66;100.00
54882;BME280;40775;51.448;4.742;2023-07-30T05:46:40;100992.97;;;17.67;100.00
54882;BME280;40775;51.448;4.742;2023-07-30T05:49:07;100999.19;;;17.69;100.00
54882;BME280;40775;51.448;4.742;2023-07-30T05:51:34;100990.31;;;17.67;100.00
54882;BME280;40775;51.448;4.742;2023-07-30T05:54:02;100999.16;;;17.72;100.00
54882;BME280;40775;51.448;4.742;2023-07-30T05:56:29;100997.41;;;17.71;100.00
54882;BME280;40775;51.448;4.742;2023-07-30T05:58:56;100995.63;;;17.73;100.00
54882;BME280;40775;51.448;4.742;2023-07-30T06:01:23;101007.97;;;17.77;100.00
54882;BME280;40775;51.448;4.742;2023-07-30T06:03:50;100997.34;;;17.80;100.00
54882;BME280;40775;51.448;4.742;2023-07-30T06:06:17;101000.00;;;17.83;100.00
54882;BME280;40775;51.448;4.742;2023-07-30T06:08:44;101006.19;;;17.82;100.00
54882;BME280;40775;51.448;4.742;2023-07-30T06:11:11;101011.47;;;17.88;100.00
54882;BME280;40775;51.448;4.742;2023-07-30T06:13:38;101021.19;;;17.89;100.00
54882;BME280;40775;51.448;4.742;2023-07-30T06:16:05;101023.84;;;17.89;100.00
54882;BME280;40775;51.448;4.742;2023-07-30T06:18:32;101020.28;;;17.93;100.00
54882;BME280;40775;51.448;4.742;2023-07-30T06:20:59;101019.41;;;17.92;100.00
54882;BME280;40775;51.448;4.742;2023-07-30T06:23:26;101013.13;;;18.01;100.00
54882;BME280;40775;51.448;4.742;2023-07-30T06:25:52;101026.38;;;18.03;100.00
54882;BME280;40775;51.448;4.742;2023-07-30T06:28:19;101018.41;;;18.04;100.00
54882;BME280;40775;51.448;4.742;2023-07-30T06:30:46;101019.25;;;18.08;100.00
54882;BME280;40775;51.448;4.742;2023-07-30T06:33:13;101010.41;;;18.07;100.00
54882;BME280;40775;51.448;4.742;2023-07-30T06:35:40;101020.16;;;18.10;100.00
54882;BME280;40775;51.448;4.742;2023-07-30T06:38:09;101025.31;;;18.27;100.00
54882;BME280;40775;51.448;4.742;2023-07-30T06:40:36;101024.44;;;18.26;100.00
54882;BME280;40775;51.448;4.742;2023-07-30T06:43:03;101019.13;;;18.28;100.00
54882;BME280;40775;51.448;4.742;2023-07-30T06:45:30;101015.50;;;18.36;100.00
54882;BME280;40775;51.448;4.742;2023-07-30T06:47:56;101008.44;;;18.35;100.00
54882;BME280;40775;51.448;4.742;2023-07-30T06:50:23;101005.75;;;18.37;100.00
54882;BME280;40775;51.448;4.742;2023-07-30T06:52:50;101005.72;;;18.41;100.00
54882;BME280;40775;51.448;4.742;2023-07-30T06:55:18;101019.78;;;18.51;100.00
54882;BME280;40775;51.448;4.742;2023-07-30T06:57:45;101026.78;;;18.61;100.00
54882;BME280;40775;51.448;4.742;2023-07-30T07:00:13;101027.72;;;18.56;100.00
54882;BME280;40775;51.448;4.742;2023-07-30T07:02:45;101025.91;;;18.67;100.00
54882;BME280;40775;51.448;4.742;2023-07-30T07:05:13;101020.56;;;18.67;100.00
54882;BME280;40775;51.448;4.742;2023-07-30T07:07:42;101018.75;;;18.72;100.00
54882;BME280;40775;51.448;4.742;2023-07-30T07:10:09;101023.88;;;18.87;100.00
54882;BME280;40775;51.448;4.742;2023-07-30T07:12:40;101000.06;;;18.78;100.00
54882;BME280;40775;51.448;4.742;2023-07-30T07:15:07;101004.41;;;18.85;100.00
54882;BME280;40775;51.448;4.742;2023-07-30T07:17:35;101015.00;;;18.91;100.00
54882;BME280;40775;51.448;4.742;2023-07-30T07:20:02;101000.56;;;19.09;100.00
54882;BME280;40775;51.448;4.742;2023-07-30T07:22:32;101000.59;;;19.07;100.00
54882;BME280;40775;51.448;4.742;2023-07-30T07:24:59;101011.13;;;19.18;100.00
54882;BME280;40775;51.448;4.742;2023-07-30T07:27:26;101004.00;;;19.17;100.00
54882;BME280;40775;51.448;4.742;2023-07-30T07:29:54;101015.47;;;19.25;100.00
54882;BME280;40775;51.448;4.742;2023-07-30T07:32:21;101009.28;;;19.23;100.00
54882;BME280;40775;51.448;4.742;2023-07-30T07:34:49;101018.22;;;19.19;100.00
54882;BME280;40775;51.448;4.742;2023-07-30T07:37:16;101026.19;;;19.19;100.00
54882;BME280;40775;51.448;4.742;2023-07-30T07:39:45;101027.03;;;19.23;100.00
54882;BME280;40775;51.448;4.742;2023-07-30T07:42:13;101030.53;;;19.28;100.00
54882;BME280;40775;51.448;4.742;2023-07-30T07:44:40;101025.19;;;19.29;100.00
54882;BME280;40775;51.448;4.742;2023-07-30T07:47:07;101014.38;;;19.40;100.00
54882;BME280;40775;51.448;4.742;2023-07-30T07:49:34;101022.34;;;19.40;100.00
54882;BME280;40775;51.448;4.742;2023-07-30T07:52:01;101027.56;;;19.54;100.00
54882;BME280;40775;51.448;4.742;2023-07-30T07:54:28;101024.88;;;19.55;100.00
54882;BME280;40775;51.448;4.742;2023-07-30T07:56:54;101033.59;;;19.65;100.00
54882;BME280;40775;51.448;4.742;2023-07-30T07:59:21;101027.50;;;19.57;100.00
54882;BME280;40775;51.448;4.742;2023-07-30T08:01:48;101039.88;;;19.61;100.00
54882;BME280;40775;51.448;4.742;2023-07-30T08:04:16;101054.22;;;19.49;100.00
54882;BME280;40775;51.448;4.742;2023-07-30T08:06:43;101054.41;;;19.34;100.00
54882;BME280;40775;51.448;4.742;2023-07-30T08:09:10;101060.72;;;19.25;100.00
54882;BME280;40775;51.448;4.742;2023-07-30T08:11:37;101060.63;;;19.33;100.00
54882;BME280;40775;51.448;4.742;2023-07-30T08:14:04;101058.78;;;19.38;100.00
54882;BME280;40775;51.448;4.742;2023-07-30T08:16:31;101056.88;;;19.49;100.00
54882;BME280;40775;51.448;4.742;2023-07-30T08:18:58;101053.34;;;19.49;100.00
54882;BME280;40775;51.448;4.742;2023-07-30T08:21:25;101062.16;;;19.52;100.00
54882;BME280;40775;51.448;4.742;2023-07-30T08:23:52;101047.06;;;19.53;100.00
54882;BME280;40775;51.448;4.742;2023-07-30T08:26:19;101040.72;;;19.64;100.00
54882;BME280;40775;51.448;4.742;2023-07-30T08:28:46;101039.75;;;19.70;100.00
54882;BME280;40775;51.448;4.742;2023-07-30T08:31:13;101035.41;;;19.63;100.00
54882;BME280;40775;51.448;4.742;2023-07-30T08:33:40;101033.63;;;19.63;100.00
54882;BME280;40775;51.448;4.742;2023-07-30T08:36:07;101035.19;;;19.80;100.00
54882;BME280;40775;51.448;4.742;2023-07-30T08:38:35;101036.16;;;19.74;100.00
54882;BME280;40775;51.448;4.742;2023-07-30T08:41:02;101020.81;;;19.90;100.00
54882;BME280;40775;51.448;4.742;2023-07-30T08:43:29;101027.47;;;20.18;100.00
54882;BME280;40775;51.448;4.742;2023-07-30T08:45:56;101010.28;;;20.36;100.00
54882;BME280;40775;51.448;4.742;2023-07-30T08:48:25;101013.88;;;20.35;100.00
54882;BME280;40775;51.448;4.742;2023-07-30T08:50:53;101011.91;;;20.46;100.00
54882;BME280;40775;51.448;4.742;2023-07-30T08:53:25;101011.59;;;20.64;100.00
54882;BME280;40775;51.448;4.742;2023-07-30T08:55:54;101018.31;;;20.85;100.00
54882;BME280;40775;51.448;4.742;2023-07-30T08:58:23;101010.50;;;20.75;100.00
54882;BME280;40775;51.448;4.742;2023-07-30T09:00:55;100996.75;;;20.96;100.00
54882;BME280;40775;51.448;4.742;2023-07-30T09:03:24;101001.44;;;20.85;100.00
54882;BME280;40775;51.448;4.742;2023-07-30T09:05:53;101003.25;;;20.81;100.00
54882;BME280;40775;51.448;4.742;2023-07-30T09:08:20;100997.81;;;20.87;100.00
54882;BME280;40775;51.448;4.742;2023-07-30T09:10:50;100996.66;;;21.01;100.00
54882;BME280;40775;51.448;4.742;2023-07-30T09:13:22;101002.59;;;21.15;100.00
54882;BME280;40775;51.448;4.742;2023-07-30T09:15:52;100993.75;;;21.13;100.00
54882;BME280;40775;51.448;4.742;2023-07-30T09:18:20;100997.91;;;21.27;100.00
54882;BME280;40775;51.448;4.742;2023-07-30T09:20:47;100997.13;;;21.21;100.00
54882;BME280;40775;51.448;4.742;2023-07-30T09:23:14;100996.88;;;21.33;100.00
54882;BME280;40775;51.448;4.742;2023-07-30T09:25:41;100996.03;;;21.31;100.00
54882;BME280;40775;51.448;4.742;2023-07-30T09:28:10;100995.00;;;21.40;100.00
54882;BME280;40775;51.448;4.742;2023-07-30T09:30:37;100994.00;;;21.44;100.00
54882;BME280;40775;51.448;4.742;2023-07-30T09:33:04;100994.66;;;21.53;100.00
54882;BME280;40775;51.448;4.742;2023-07-30T09:35:33;100989.56;;;21.81;100.00
54882;BME280;40775;51.448;4.742;2023-07-30T09:38:03;100999.75;;;22.03;100.00
54882;BME280;40775;51.448;4.742;2023-07-30T09:40:37;100994.69;;;21.92;100.00
54882;BME280;40775;51.448;4.742;2023-07-30T09:43:06;101012.78;;;21.79;100.00
54882;BME280;40775;51.448;4.742;2023-07-30T09:45:35;101010.78;;;21.87;100.00
54882;BME280;40775;51.448;4.742;2023-07-30T09:48:04;101007.34;;;21.82;100.00
54882;BME280;40775;51.448;4.742;2023-07-30T09:50:34;101015.41;;;21.81;100.00
54882;BME280;40775;51.448;4.742;2023-07-30T09:53:02;101017.91;;;21.88;100.00
54882;BME280;40775;51.448;4.742;2023-07-30T09:55:30;101012.56;;;21.88;100.00
54882;BME280;40775;51.448;4.742;2023-07-30T09:57:57;101017.78;;;21.95;100.00
54882;BME280;40775;51.448;4.742;2023-07-30T10:00:24;101015.38;;;22.21;100.00
54882;BME280;40775;51.448;4.742;2023-07-30T10:02:53;101022.44;;;22.24;100.00
54882;BME280;40775;51.448;4.742;2023-07-30T10:05:26;101014.75;;;22.10;100.00
54882;BME280;40775;51.448;4.742;2023-07-30T10:08:08;101008.50;;;22.11;100.00
54882;BME280;40775;51.448;4.742;2023-07-30T10:10:36;101023.56;;;22.13;100.00
54882;BME280;40775;51.448;4.742;2023-07-30T10:13:09;101023.50;;;22.16;100.00
54882;BME280;40775;51.448;4.742;2023-07-30T10:15:38;101030.72;;;22.13;100.00
54882;BME280;40775;51.448;4.742;2023-07-30T10:18:05;101037.88;;;22.12;100.00
54882;BME280;40775;51.448;4.742;2023-07-30T10:20:33;101033.59;;;22.05;100.00
54882;BME280;40775;51.448;4.742;2023-07-30T10:23:01;101040.84;;;21.99;100.00
54882;BME280;40775;51.448;4.742;2023-07-30T10:28:11;101047.19;;;21.95;100.00
54882;BME280;40775;51.448;4.742;2023-07-30T10:30:58;101055.28;;;21.90;100.00
54882;BME280;40775;51.448;4.742;2023-07-30T10:33:52;101053.84;;;22.15;100.00
54882;BME280;40775;51.448;4.742;2023-07-30T10:36:40;101048.91;;;22.34;100.00
54882;BME280;40775;51.448;4.742;2023-07-30T10:39:19;101039.53;;;22.54;100.00
54882;BME280;40775;51.448;4.742;2023-07-30T10:41:50;101044.38;;;22.72;100.00
54882;BME280;40775;51.448;4.742;2023-07-30T10:44:22;101045.84;;;22.51;100.00
54882;BME280;40775;51.448;4.742;2023-07-30T10:46:54;101058.53;;;22.41;100.00
54882;BME280;40775;51.448;4.742;2023-07-30T10:49:22;101058.59;;;22.40;100.00
54882;BME280;40775;51.448;4.742;2023-07-30T10:51:52;101056.66;;;22.45;100.00
54882;BME280;40775;51.448;4.742;2023-07-30T10:54:20;101047.69;;;22.83;100.00
54882;BME280;40775;51.448;4.742;2023-07-30T10:56:47;101039.63;;;22.85;100.00
54882;BME280;40775;51.448;4.742;2023-07-30T10:59:18;101046.38;;;22.98;100.00
54882;BME280;40775;51.448;4.742;2023-07-30T11:01:46;101043.31;;;23.11;100.00
54882;BME280;40775;51.448;4.742;2023-07-30T11:04:20;101038.47;;;23.24;100.00
54882;BME280;40775;51.448;4.742;2023-07-30T11:06:51;101039.44;;;23.22;100.00
54882;BME280;40775;51.448;4.742;2023-07-30T11:09:23;101032.09;;;23.28;100.00
54882;BME280;40775;51.448;4.742;2023-07-30T11:11:52;101033.47;;;23.43;100.00
54882;BME280;40775;51.448;4.742;2023-07-30T11:14:22;101042.56;;;23.68;100.00
54882;BME280;40775;51.448;4.742;2023-07-30T11:16:54;101041.19;;;23.85;100.00
54882;BME280;40775;51.448;4.742;2023-07-30T11:19:22;101045.47;;;24.18;100.00
54882;BME280;40775;51.448;4.742;2023-07-30T11:21:52;101053.66;;;23.56;100.00
54882;BME280;40775;51.448;4.742;2023-07-30T11:24:21;101053.56;;;23.89;100.00
54882;BME280;40775;51.448;4.742;2023-07-30T11:27:01;101050.94;;;23.87;100.00
54882;BME280;40775;51.448;4.742;2023-07-30T11:29:28;101053.47;;;23.92;100.00
54882;BME280;40775;51.448;4.742;2023-07-30T11:31:59;101061.59;;;23.89;100.00
54882;BME280;40775;51.448;4.742;2023-07-30T11:34:27;101063.69;;;24.07;100.00
54882;BME280;40775;51.448;4.742;2023-07-30T11:36:55;101063.97;;;23.98;100.00
54882;BME280;40775;51.448;4.742;2023-07-30T11:39:24;101066.16;;;24.15;100.00
54882;BME280;40775;51.448;4.742;2023-07-30T11:41:51;101060.88;;;24.40;100.00
54882;BME280;40775;51.448;4.742;2023-07-30T11:44:38;101063.66;;;24.37;100.00
54882;BME280;40775;51.448;4.742;2023-07-30T11:47:08;101056.69;;;24.31;100.00
54882;BME280;40775;51.448;4.742;2023-07-30T11:49:38;101075.69;;;24.23;100.00
54882;BME280;40775;51.448;4.742;2023-07-30T11:52:10;101069.91;;;24.08;100.00
54882;BME280;40775;51.448;4.742;2023-07-30T11:54:37;101072.72;;;24.32;100.00
54882;BME280;40775;51.448;4.742;2023-07-30T11:57:05;101069.41;;;24.24;100.00
54882;BME280;40775;51.448;4.742;2023-07-30T11:59:32;101075.13;;;24.14;100.00
54882;BME280;40775;51.448;4.742;2023-07-30T12:02:00;101067.59;;;23.97;100.00
54882;BME280;40775;51.448;4.742;2023-07-30T12:04:47;101068.63;;;23.93;100.00
54882;BME280;40775;51.448;4.742;2023-07-30T12:07:33;101075.69;;;23.95;100.00
54882;BME280;40775;51.448;4.742;2023-07-30T12:10:13;101089.56;;;23.80;100.00
54882;BME280;40775;51.448;4.742;2023-07-30T12:12:46;101078.28;;;24.26;100.00
54882;BME280;40775;51.448;4.742;2023-07-30T12:15:19;101089.16;;;24.22;100.00
54882;BME280;40775;51.448;4.742;2023-07-30T12:17:46;101083.50;;;24.03;100.00
54882;BME280;40775;51.448;4.742;2023-07-30T12:20:14;101087.72;;;24.12;100.00
54882;BME280;40775;51.448;4.742;2023-07-30T12:22:41;101089.47;;;24.41;100.00
54882;BME280;40775;51.448;4.742;2023-07-30T12:25:09;101082.75;;;24.54;100.00
54882;BME280;40775;51.448;4.742;2023-07-30T12:27:37;101089.09;;;24.23;100.00
54882;BME280;40775;51.448;4.742;2023-07-30T12:30:05;101095.19;;;24.00;100.00
54882;BME280;40775;51.448;4.742;2023-07-30T12:32:32;101096.06;;;24.01;100.00
54882;BME280;40775;51.448;4.742;2023-07-30T12:34:59;101090.56;;;24.05;100.00
54882;BME280;40775;51.448;4.742;2023-07-30T12:37:26;101105.53;;;23.85;100.00
54882;BME280;40775;51.448;4.742;2023-07-30T12:39:53;101103.81;;;24.10;100.00
54882;BME280;40775;51.448;4.742;2023-07-30T12:42:20;101084.25;;;24.07;100.00
54882;BME280;40775;51.448;4.742;2023-07-30T12:44:47;101094.81;;;24.13;100.00
54882;BME280;40775;51.448;4.742;2023-07-30T12:47:14;101086.25;;;24.56;100.00